Terminal Aerodrome Forecast
Issued by NWS Twin Cities, MN

Home | Current Version | Previous Version | Text Only | Print | Product List | Glossary Off
Versions: 1 2 3 4 5 6 7 8 9 10 11 12 13 14 15 16

000
FTUS43 KMPX 281847 AAA
TAFSTC
TAF AMD
KSTC 281847Z 2819/2918 08009KT P6SM -RA SCT025 BKN040 OVC060
      TEMPO 2819/2821 BKN025
     FM290200 04004KT P6SM VCSH BKN040 OVC080
     FM290600 03005KT P6SM SCT050 BKN100=

USA.gov is the U.S. government's official web portal to all federal, state and local government web resources and services.